Time;durP1;ratioP1;P1;durP2;ratioP2;P2;SDS_P1;SDS_P2;PMS_P1;PMS_P2;Temp;Humidity;BMP_temperature;BMP_pressure;BME280_temperature;BME280_humidity;BME280_pressure;Samples;Min_cycle;Max_cycle;Signal;HPM_P1;HPM_P2
2022/09/06 00:01:32;;;;;;;;;;;;;;;;;;5011154;28;8364;-83
2022/09/06 00:03:57;;;;;;;;;;;;;;;;;;5010938;28;8410;-82
2022/09/06 00:06:22;;;;;;;;;;;;;;;;;;5011090;28;7436;-83
2022/09/06 00:08:48;;;;;;;;;;;;;;;;;;5010819;28;8638;-82
2022/09/06 00:11:16;;;;;;;;;;;;;;;;;;5011160;28;8439;-82
2022/09/06 00:13:42;;;;;;;;;;;;;;;;;;5011050;28;8457;-82
2022/09/06 00:16:10;;;;;;;;;;;;;;;;;;5011323;28;7079;-82
2022/09/06 00:18:36;;;;;;;;;;;;;;;;;;5010963;28;7209;-82
2022/09/06 00:21:04;;;;;;;;;;;;;;;;;;5011256;28;8463;-82
2022/09/06 00:23:29;;;;;;;;;;;;;;;;;;5010650;28;8419;-81
2022/09/06 00:26:02;;;;;;;;;;;;;;;;;;5011424;28;7289;-83
2022/09/06 00:28:28;;;;;;;;;;;;;;;;;;5011000;28;8424;-82
2022/09/06 00:30:53;;;;;;;;;;;;;;;;;;5010632;28;7198;-82
2022/09/06 00:33:19;;;;;;;;;;;;;;;;;;5011119;28;8431;-82
2022/09/06 00:35:46;;;;;;;;;;;;;;;;;;5011084;28;7168;-82
2022/09/06 00:38:11;;;;;;;;;;;;;;;;;;5010769;28;7031;-82
2022/09/06 00:40:37;;;;;;;;;;;;;;;;;;5011072;28;8434;-82
2022/09/06 00:43:03;;;;;;;;;;;;;;;;;;5010794;28;8400;-82
2022/09/06 00:45:30;;;;;;;;;;;;;;;;;;4994632;28;8451;-82
2022/09/06 00:47:58;;;;;;;;;;;;;;;;;;5010423;28;8423;-82
2022/09/06 00:50:23;;;;;;;;;;;;;;;;;;5010418;28;8423;-82
2022/09/06 00:52:52;;;;;;;;;;;;;;;;;;5010601;28;8734;-83
2022/09/06 00:55:19;;;;;;;;;;;;;;;;;;5010644;28;7368;-83
2022/09/06 00:57:49;;;;;;;;;;;;;;;;;;5016340;28;8447;-82
2022/09/06 01:00:15;;;;;;;;;;;;;;;;;;5016064;28;8832;-83
2022/09/06 01:02:41;;;;;;;;;;;;;;;;;;5017045;28;7003;-83
2022/09/06 01:05:08;;;;;;;;;;;;;;;;;;5017062;28;7066;-82
2022/09/06 01:08:03;;;;;;;;;;;;;;;;;;5017067;28;8742;-82
2022/09/06 01:10:34;;;;;;;;;;;;;;;;;;5000917;28;8492;-82
2022/09/06 01:13:20;;;;;;;;;;;;;;;;;;5001118;28;8476;-83
2022/09/06 01:16:05;;;;;;;;;;;;;;;;;;5017410;28;8735;-83
2022/09/06 01:18:50;;;;;;;;;;;;;;;;;;5016840;28;7030;-83
2022/09/06 01:21:27;;;;;;;;;;;;;;;;;;5000213;28;8901;-82
2022/09/06 01:23:56;;;;;;;;;;;;;;;;;;5016798;28;7061;-82
2022/09/06 01:26:51;;;;;;;;;;;;;;;;;;5000790;28;8720;-83
2022/09/06 01:29:40;;;;;;;;;;;;;;;;;;5016474;28;7273;-83
2022/09/06 01:32:16;;;;;;;;;;;;;;;;;;5016646;28;9029;-82
2022/09/06 01:34:47;;;;;;;;;;;;;;;;;;5016889;28;9008;-83
2022/09/06 01:37:18;;;;;;;;;;;;;;;;;;5016631;28;7144;-82
2022/09/06 01:39:44;;;;;;;;;;;;;;;;;;5017015;28;9199;-82
2022/09/06 01:42:25;;;;;;;;;;;;;;;;;;5016971;28;8472;-83
2022/09/06 01:44:54;;;;;;;;;;;;;;;;;;5016992;28;8404;-83
2022/09/06 01:47:19;;;;;;;;;;;;;;;;;;5016904;28;8873;-82
2022/09/06 01:49:51;;;;;;;;;;;;;;;;;;5000027;28;8481;-82
2022/09/06 01:52:34;;;;;;;;;;;;;;;;;;5000036;28;7436;-81
2022/09/06 01:54:59;;;;;;;;;;;;;;;;;;5016897;28;8576;-83
2022/09/06 01:57:31;;;;;;;;;;;;;;;;;;5000132;28;7054;-83
2022/09/06 02:00:00;;;;;;;;;;;;;;;;;;5000133;28;8339;-82
2022/09/06 02:02:35;;;;;;;;;;;;;;;;;;5000049;28;7285;-82
2022/09/06 02:05:09;;;;;;;;;;;;;;;;;;5017229;28;6984;-82
2022/09/06 02:07:37;;;;;;;;;;;;;;;;;;5015825;28;7461;-82
2022/09/06 02:10:09;;;;;;;;;;;;;;;;;;5012921;28;7210;-82
2022/09/06 02:12:38;;;;;;;;;;;;;;;;;;4997236;28;7196;-82
2022/09/06 02:15:07;;;;;;;;;;;;;;;;;;5013410;28;7229;-82
2022/09/06 02:17:38;;;;;;;;;;;;;;;;;;5013136;28;8294;-82
2022/09/06 02:20:24;;;;;;;;;;;;;;;;;;5013284;28;8416;-82
2022/09/06 02:22:52;;;;;;;;;;;;;;;;;;5013599;28;7300;-82
2022/09/06 02:25:23;;;;;;;;;;;;;;;;;;5013035;28;8593;-83
2022/09/06 02:27:48;;;;;;;;;;;;;;;;;;5013669;28;8377;-83
2022/09/06 02:30:14;;;;;;;;;;;;;;;;;;5013030;28;8750;-83
2022/09/06 02:32:45;;;;;;;;;;;;;;;;;;5013789;28;8397;-82
2022/09/06 02:35:13;;;;;;;;;;;;;;;;;;5013376;28;7149;-82
2022/09/06 02:37:40;;;;;;;;;;;;;;;;;;5013681;28;8728;-83
2022/09/06 02:40:06;;;;;;;;;;;;;;;;;;5013349;28;8426;-83
2022/09/06 02:42:32;;;;;;;;;;;;;;;;;;5012767;28;8458;-82
2022/09/06 02:44:57;;;;;;;;;;;;;;;;;;5012649;28;8413;-83
2022/09/06 02:47:23;;;;;;;;;;;;;;;;;;5012924;28;9266;-82
2022/09/06 02:49:48;;;;;;;;;;;;;;;;;;5012757;28;8760;-82
2022/09/06 02:52:14;;;;;;;;;;;;;;;;;;5012823;28;7171;-82
2022/09/06 02:54:40;;;;;;;;;;;;;;;;;;5012510;28;7025;-83
2022/09/06 02:57:05;;;;;;;;;;;;;;;;;;5012693;28;8935;-83
2022/09/06 02:59:31;;;;;;;;;;;;;;;;;;5012836;28;8250;-82
2022/09/06 03:01:56;;;;;;;;;;;;;;;;;;5012432;28;8817;-83
2022/09/06 03:04:23;;;;;;;;;;;;;;;;;;5012631;28;8465;-83
2022/09/06 03:06:48;;;;;;;;;;;;;;;;;;5012292;28;8551;-83
2022/09/06 03:09:14;;;;;;;;;;;;;;;;;;5012088;28;8654;-82
2022/09/06 03:11:40;;;;;;;;;;;;;;;;;;5012422;28;8630;-81
2022/09/06 03:14:05;;;;;;;;;;;;;;;;;;5012329;28;8695;-83
2022/09/06 03:16:31;;;;;;;;;;;;;;;;;;5012173;28;7239;-82
2022/09/06 03:18:56;;;;;;;;;;;;;;;;;;5012396;28;8437;-83
2022/09/06 03:21:22;;;;;;;;;;;;;;;;;;5011049;28;8477;-83
2022/09/06 03:23:48;;;;;;;;;;;;;;;;;;5011879;28;8830;-83
2022/09/06 03:26:14;;;;;;;;;;;;;;;;;;5011777;28;8342;-85
2022/09/06 03:28:40;;;;;;;;;;;;;;;;;;5011715;28;8659;-85
2022/09/06 03:31:05;;;;;;;;;;;;;;;;;;5012157;28;8452;-85
2022/09/06 03:33:30;;;;;;;;;;;;;;;;;;5011676;28;8330;-85
2022/09/06 03:35:58;;;;;;;;;;;;;;;;;;5011728;28;7278;-84
2022/09/06 03:38:25;;;;;;;;;;;;;;;;;;5011466;28;8619;-85
2022/09/06 03:40:52;;;;;;;;;;;;;;;;;;5012299;28;7179;-85
2022/09/06 03:43:18;;;;;;;;;;;;;;;;;;5011373;28;8859;-85
2022/09/06 03:45:52;;;;;;;;;;;;;;;;;;5011756;28;7226;-85
2022/09/06 03:48:19;;;;;;;;;;;;;;;;;;4996220;28;7207;-85
2022/09/06 03:50:46;;;;;;;;;;;;;;;;;;5011425;28;8449;-85
2022/09/06 03:53:11;;;;;;;;;;;;;;;;;;5011467;28;8497;-85
2022/09/06 03:55:37;;;;;;;;;;;;;;;;;;5011437;28;8410;-85
2022/09/06 03:58:02;;;;;;;;;;;;;;;;;;5011278;28;7158;-85
2022/09/06 04:00:28;;;;;;;;;;;;;;;;;;5011395;28;8417;-85
2022/09/06 04:02:53;;;;;;;;;;;;;;;;;;5011224;28;8392;-85
2022/09/06 04:05:19;;;;;;;;;;;;;;;;;;5011408;28;8403;-83
2022/09/06 04:07:44;;;;;;;;;;;;;;;;;;5011132;28;8315;-82
2022/09/06 04:10:10;;;;;;;;;;;;;;;;;;5011536;28;8425;-82
2022/09/06 04:12:35;;;;;;;;;;;;;;;;;;5011190;28;7195;-82
2022/09/06 04:15:01;;;;;;;;;;;;;;;;;;5010931;28;7344;-83
2022/09/06 04:17:27;;;;;;;;;;;;;;;;;;5011409;28;9582;-83
2022/09/06 04:19:52;;;;;;;;;;;;;;;;;;5011525;28;8410;-82
2022/09/06 04:22:18;;;;;;;;;;;;;;;;;;5010423;28;8477;-82
2022/09/06 04:24:43;;;;;;;;;;;;;;;;;;5011074;28;8412;-82
2022/09/06 04:27:09;;;;;;;;;;;;;;;;;;5011486;28;8307;-82
2022/09/06 04:29:34;;;;;;;;;;;;;;;;;;5010982;28;8809;-82
2022/09/06 04:32:00;;;;;;;;;;;;;;;;;;5010819;28;8530;-83
2022/09/06 04:34:25;;;;;;;;;;;;;;;;;;5010703;28;8480;-82
2022/09/06 04:36:51;;;;;;;;;;;;;;;;;;5010907;28;8601;-82
2022/09/06 04:39:16;;;;;;;;;;;;;;;;;;5010813;28;7042;-82
2022/09/06 04:41:41;;;;;;;;;;;;;;;;;;5010500;28;8449;-82
2022/09/06 04:44:07;;;;;;;;;;;;;;;;;;5010586;28;8464;-82
2022/09/06 04:46:33;;;;;;;;;;;;;;;;;;5011220;28;8334;-82
2022/09/06 04:49:00;;;;;;;;;;;;;;;;;;5010730;28;8426;-82
2022/09/06 04:51:26;;;;;;;;;;;;;;;;;;5010576;28;7051;-82
2022/09/06 04:53:52;;;;;;;;;;;;;;;;;;5010575;28;7079;-82
2022/09/06 04:56:22;;;;;;;;;;;;;;;;;;5010830;28;8558;-82
2022/09/06 04:58:49;;;;;;;;;;;;;;;;;;5010750;28;7357;-83
2022/09/06 05:01:15;;;;;;;;;;;;;;;;;;5010755;28;8458;-82
2022/09/06 05:03:41;;;;;;;;;;;;;;;;;;5010367;28;8484;-82
2022/09/06 05:06:11;;;;;;;;;;;;;;;;;;5010964;28;7534;-82
2022/09/06 05:08:38;;;;;;;;;;;;;;;;;;5010292;28;8399;-83
2022/09/06 05:11:04;;;;;;;;;;;;;;;;;;5010384;28;8758;-82
2022/09/06 05:13:29;;;;;;;;;;;;;;;;;;5010359;28;7230;-82
2022/09/06 05:15:55;;;;;;;;;;;;;;;;;;5012352;28;8335;-82
2022/09/06 05:18:20;;;;;;;;;;;;;;;;;;5010358;28;8414;-83
2022/09/06 05:20:53;;;;;;;;;;;;;;;;;;5010601;28;8595;-82
2022/09/06 05:23:19;;;;;;;;;;;;;;;;;;5010899;28;7426;-81
2022/09/06 05:25:45;;;;;;;;;;;;;;;;;;5010104;28;7381;-82
2022/09/06 05:28:10;;;;;;;;;;;;;;;;;;5010221;28;8375;-82
2022/09/06 05:30:36;;;;;;;;;;;;;;;;;;5010304;28;8422;-82
2022/09/06 05:33:01;;;;;;;;;;;;;;;;;;5010818;28;7172;-82
2022/09/06 05:35:26;;;;;;;;;;;;;;;;;;5010494;28;8704;-83
2022/09/06 05:37:52;;;;;;;;;;;;;;;;;;5010456;28;7597;-82
2022/09/06 05:40:17;;;;;;;;;;;;;;;;;;5010324;28;8396;-83
2022/09/06 05:42:43;;;;;;;;;;;;;;;;;;5010411;28;8571;-81
2022/09/06 05:45:08;;;;;;;;;;;;;;;;;;5013687;28;8850;-83
2022/09/06 05:47:34;;;;;;;;;;;;;;;;;;5013864;28;8382;-83
2022/09/06 05:50:00;;;;;;;;;;;;;;;;;;5013604;28;7080;-84
2022/09/06 05:52:27;;;;;;;;;;;;;;;;;;5013761;28;8890;-84
2022/09/06 05:54:52;;;;;;;;;;;;;;;;;;5013470;28;8468;-82
2022/09/06 05:57:18;;;;;;;;;;;;;;;;;;5013684;28;8366;-84
2022/09/06 05:59:43;;;;;;;;;;;;;;;;;;5013823;28;8392;-83
2022/09/06 06:02:09;;;;;;;;;;;;;;;;;;5013727;28;8401;-83
2022/09/06 06:04:34;;;;;;;;;;;;;;;;;;5014776;28;9829;-81
2022/09/06 06:07:00;;;;;;;;;;;;;;;;;;5014060;28;8360;-81
2022/09/06 06:09:26;;;;;;;;;;;;;;;;;;5013166;28;7062;-81
2022/09/06 06:11:52;;;;;;;;;;;;;;;;;;5013345;28;7181;-82
2022/09/06 06:14:17;;;;;;;;;;;;;;;;;;5013294;28;7044;-81
2022/09/06 06:16:43;;;;;;;;;;;;;;;;;;5013139;28;7259;-81
2022/09/06 06:19:08;;;;;;;;;;;;;;;;;;5013240;28;8320;-82
2022/09/06 06:21:34;;;;;;;;;;;;;;;;;;5013011;28;8499;-82
2022/09/06 06:24:01;;;;;;;;;;;;;;;;;;5013539;28;8740;-82
2022/09/06 06:26:28;;;;;;;;;;;;;;;;;;5013605;28;8461;-82
2022/09/06 06:28:56;;;;;;;;;;;;;;;;;;5012912;28;8463;-81
2022/09/06 06:31:22;;;;;;;;;;;;;;;;;;5012962;28;7167;-82
2022/09/06 06:33:49;;;;;;;;;;;;;;;;;;5013043;28;8948;-81
2022/09/06 06:36:14;;;;;;;;;;;;;;;;;;4996479;28;7194;-82
2022/09/06 06:38:41;;;;;;;;;;;;;;;;;;5012937;28;8578;-83
2022/09/06 06:41:08;;;;;;;;;;;;;;;;;;5013057;28;8760;-82
2022/09/06 06:43:37;;;;;;;;;;;;;;;;;;5012901;28;8496;-81
2022/09/06 06:46:07;;;;;;;;;;;;;;;;;;5013059;28;8809;-91
2022/09/06 06:48:34;;;;;;;;;;;;;;;;;;5013057;28;8615;-89
2022/09/06 06:51:00;;;;;;;;;;;;;;;;;;5012347;28;8509;-81
2022/09/06 06:53:26;;;;;;;;;;;;;;;;;;5013020;28;8332;-82
2022/09/06 06:55:51;;;;;;;;;;;;;;;;;;5012194;28;8417;-82
2022/09/06 06:58:17;;;;;;;;;;;;;;;;;;5012506;28;8430;-83
2022/09/06 07:00:44;;;;;;;;;;;;;;;;;;5012783;28;7083;-82
2022/09/06 07:03:10;;;;;;;;;;;;;;;;;;5012678;28;7386;-82
2022/09/06 07:05:37;;;;;;;;;;;;;;;;;;5012922;28;7060;-82
2022/09/06 07:08:03;;;;;;;;;;;;;;;;;;5012443;28;7039;-82
2022/09/06 07:10:28;;;;;;;;;;;;;;;;;;5012348;28;8547;-82
2022/09/06 07:12:54;;;;;;;;;;;;;;;;;;5012438;28;8416;-82
2022/09/06 07:15:20;;;;;;;;;;;;;;;;;;5012538;28;9546;-82
2022/09/06 07:17:45;;;;;;;;;;;;;;;;;;5019027;28;9620;-82
2022/09/06 07:20:11;;;;;;;;;;;;;;;;;;5031821;28;7429;-83
2022/09/06 07:22:37;;;;;;;;;;;;;;;;;;5031614;28;8709;-82
2022/09/06 07:25:04;;;;;;;;;;;;;;;;;;5031857;28;8468;-81
2022/09/06 07:27:29;;;;;;;;;;;;;;;;;;5031812;28;8510;-82
2022/09/06 07:29:55;;;;;;;;;;;;;;;;;;5031594;28;7053;-81
2022/09/06 07:32:20;;;;;;;;;;;;;;;;;;5031565;28;7020;-86
2022/09/06 07:34:45;;;;;;;;;;;;;;;;;;5031016;28;8417;-82
2022/09/06 07:37:11;;;;;;;;;;;;;;;;;;5031977;28;7519;-88
2022/09/06 07:39:37;;;;;;;;;;;;;;;;;;5031999;28;8413;-90
2022/09/06 07:42:03;;;;;;;;;;;;;;;;;;5031567;28;7153;-88
2022/09/06 07:44:29;;;;;;;;;;;;;;;;;;5031043;28;8432;-86
2022/09/06 07:46:54;;;;;;;;;;;;;;;;;;5031210;28;8600;-88
2022/09/06 07:49:20;;;;;;;;;;;;;;;;;;5031196;28;8758;-86
2022/09/06 07:51:46;;;;;;;;;;;;;;;;;;5031358;28;7454;-81
2022/09/06 07:54:12;;;;;;;;;;;;;;;;;;5031300;28;8327;-84
2022/09/06 07:56:37;;;;;;;;;;;;;;;;;;5031444;28;8903;-86
2022/09/06 07:59:03;;;;;;;;;;;;;;;;;;5031549;28;8315;-86
2022/09/06 08:01:36;;;;;;;;;;;;;;;;;;5030859;28;8703;-82
2022/09/06 08:04:01;;;;;;;;;;;;;;;;;;5030858;28;8480;-86
2022/09/06 08:06:28;;;;;;;;;;;;;;;;;;5013595;28;8355;-87
2022/09/06 08:08:54;;;;;;;;;;;;;;;;;;5030979;28;7045;-86
2022/09/06 08:11:20;;;;;;;;;;;;;;;;;;5030939;28;7177;-87
2022/09/06 08:13:49;;;;;;;;;;;;;;;;;;5030624;28;7097;-87
2022/09/06 08:16:15;;;;;;;;;;;;;;;;;;5014368;28;8383;-87
2022/09/06 08:18:41;;;;;;;;;;;;;;;;;;5030897;28;7109;-86
2022/09/06 08:21:12;;;;;;;;;;;;;;;;;;5030397;28;8550;-81
2022/09/06 08:23:41;;;;;;;;;;;;;;;;;;5030025;28;8513;-82
2022/09/06 08:26:07;;;;;;;;;;;;;;;;;;5029877;28;8900;-83
2022/09/06 08:28:33;;;;;;;;;;;;;;;;;;5029542;28;8895;-82
2022/09/06 08:31:12;;;;;;;;;;;;;;;;;;5028873;28;8647;-83
2022/09/06 08:33:39;;;;;;;;;;;;;;;;;;5029770;28;8851;-83
2022/09/06 08:36:05;;;;;;;;;;;;;;;;;;5032210;28;8486;-83
2022/09/06 08:38:31;;;;;;;;;;;;;;;;;;5030714;28;8506;-83
2022/09/06 08:41:08;;;;;;;;;;;;;;;;;;5030266;28;7258;-82
2022/09/06 08:43:34;;;;;;;;;;;;;;;;;;5030684;28;8445;-84
2022/09/06 08:46:01;;;;;;;;;;;;;;;;;;5030214;28;8521;-85
2022/09/06 08:48:29;;;;;;;;;;;;;;;;;;5030198;28;7118;-85
2022/09/06 08:51:10;;;;;;;;;;;;;;;;;;5030673;28;8753;-83
2022/09/06 08:53:41;;;;;;;;;;;;;;;;;;5004451;28;8459;-85
2022/09/06 08:56:10;;;;;;;;;;;;;;;;;;5010203;28;7452;-85
2022/09/06 08:58:52;;;;;;;;;;;;;;;;;;4994647;28;8526;-83
2022/09/06 09:01:24;;;;;;;;;;;;;;;;;;5009385;28;8402;-83
2022/09/06 09:03:53;;;;;;;;;;;;;;;;;;5010040;28;8894;-83
2022/09/06 09:06:18;;;;;;;;;;;;;;;;;;5010415;28;8476;-83
2022/09/06 09:08:45;;;;;;;;;;;;;;;;;;5009873;28;8396;-83
2022/09/06 09:11:22;;;;;;;;;;;;;;;;;;4994318;28;6885;-82
2022/09/06 09:13:47;;;;;;;;;;;;;;;;;;5010151;28;9314;-81
2022/09/06 09:16:14;;;;;;;;;;;;;;;;;;4992118;28;8471;-81
2022/09/06 09:18:43;;;;;;;;;;;;;;;;;;5012385;28;8730;-81
2022/09/06 09:21:09;;;;;;;;;;;;;;;;;;5013217;28;7317;-81
2022/09/06 09:23:35;;;;;;;;;;;;;;;;;;5013855;28;8764;-84
2022/09/06 09:26:08;;;;;;;;;;;;;;;;;;5013316;28;7260;-82
2022/09/06 09:28:34;;;;;;;;;;;;;;;;;;5013633;28;7256;-83
2022/09/06 09:31:00;;;;;;;;;;;;;;;;;;5014056;28;8928;-84
2022/09/06 09:33:27;;;;;;;;;;;;;;;;;;5014043;28;8730;-83
2022/09/06 09:35:55;;;;;;;;;;;;;;;;;;5013935;28;8889;-84
2022/09/06 09:38:30;;;;;;;;;;;;;;;;;;5013900;28;7502;-83
2022/09/06 09:41:07;;;;;;;;;;;;;;;;;;5014145;28;7252;-82
2022/09/06 09:43:54;;;;;;;;;;;;;;;;;;5013883;28;7117;-83
2022/09/06 09:46:23;;;;;;;;;;;;;;;;;;5013780;28;8829;-82
2022/09/06 09:49:07;;;;;;;;;;;;;;;;;;4997639;28;8400;-83
2022/09/06 09:51:38;;;;;;;;;;;;;;;;;;4997295;28;8941;-82
2022/09/06 09:54:06;;;;;;;;;;;;;;;;;;5013802;28;7145;-84
2022/09/06 09:56:31;;;;;;;;;;;;;;;;;;5013647;28;8421;-85
2022/09/06 09:58:59;;;;;;;;;;;;;;;;;;4996607;28;8503;-84
2022/09/06 10:01:28;;;;;;;;;;;;;;;;;;5014496;28;8704;-83
2022/09/06 10:04:00;;;;;;;;;;;;;;;;;;5013623;28;8526;-85
2022/09/06 10:06:26;;;;;;;;;;;;;;;;;;4997436;28;7406;-82
2022/09/06 10:08:53;;;;;;;;;;;;;;;;;;5013015;28;7208;-85
2022/09/06 10:11:37;;;;;;;;;;;;;;;;;;5012583;28;8951;-84
2022/09/06 10:14:23;;;;;;;;;;;;;;;;;;5013623;28;8562;-83
2022/09/06 10:16:50;;;;;;;;;;;;;;;;;;5013129;28;7515;-83
2022/09/06 10:19:28;;;;;;;;;;;;;;;;;;5013566;28;7267;-83
2022/09/06 10:21:59;;;;;;;;;;;;;;;;;;5013155;28;8474;-84
2022/09/06 10:24:35;;;;;;;;;;;;;;;;;;5013786;28;7197;-84
2022/09/06 10:27:02;;;;;;;;;;;;;;;;;;5013173;28;8675;-84
2022/09/06 10:29:49;;;;;;;;;;;;;;;;;;4995932;28;8959;-84
2022/09/06 10:32:26;;;;;;;;;;;;;;;;;;5012983;28;9222;-84
2022/09/06 10:35:15;;;;;;;;;;;;;;;;;;4996571;28;7349;-85
2022/09/06 10:37:47;;;;;;;;;;;;;;;;;;4988509;28;9385;-84
2022/09/06 10:40:33;;;;;;;;;;;;;;;;;;5013040;28;8546;-82
2022/09/06 10:43:00;;;;;;;;;;;;;;;;;;5012255;28;7100;-82
2022/09/06 10:45:30;;;;;;;;;;;;;;;;;;5012973;28;7878;-82
2022/09/06 10:48:08;;;;;;;;;;;;;;;;;;5012652;28;8500;-83
2022/09/06 10:50:39;;;;;;;;;;;;;;;;;;5012592;28;8543;-83
2022/09/06 10:53:15;;;;;;;;;;;;;;;;;;4996277;28;8388;-84
2022/09/06 10:55:46;;;;;;;;;;;;;;;;;;5012420;28;8556;-84
2022/09/06 10:58:11;;;;;;;;;;;;;;;;;;5012556;28;8557;-83
2022/09/06 11:00:42;;;;;;;;;;;;;;;;;;5012375;28;8868;-84
2022/09/06 11:03:32;;;;;;;;;;;;;;;;;;5012360;28;8622;-84
2022/09/06 11:06:03;;;;;;;;;;;;;;;;;;5012878;28;8979;-84
2022/09/06 11:08:35;;;;;;;;;;;;;;;;;;5012567;28;8815;-83
2022/09/06 11:11:06;;;;;;;;;;;;;;;;;;4996161;28;8929;-85
2022/09/06 11:13:32;;;;;;;;;;;;;;;;;;5012360;28;7589;-85
2022/09/06 11:16:03;;;;;;;;;;;;;;;;;;5012149;28;7137;-83
2022/09/06 11:18:32;;;;;;;;;;;;;;;;;;4994314;28;8589;-84
2022/09/06 11:21:18;;;;;;;;;;;;;;;;;;4994846;28;9637;-84
2022/09/06 11:23:51;;;;;;;;;;;;;;;;;;5011075;28;8568;-84
2022/09/06 11:26:37;;;;;;;;;;;;;;;;;;5010695;28;8416;-81
2022/09/06 11:29:17;;;;;;;;;;;;;;;;;;4964480;28;8795;-83
2022/09/06 11:31:54;;;;;;;;;;;;;;;;;;5011204;28;8873;-82
2022/09/06 11:34:22;;;;;;;;;;;;;;;;;;5011898;28;8534;-83
2022/09/06 11:36:50;;;;;;;;;;;;;;;;;;5011515;28;8654;-83
2022/09/06 11:39:42;;;;;;;;;;;;;;;;;;5012136;28;8523;-82
2022/09/06 11:42:28;;;;;;;;;;;;;;;;;;4991189;28;8884;-83
2022/09/06 11:44:56;;;;;;;;;;;;;;;;;;5011246;28;7327;-82
2022/09/06 11:47:42;;;;;;;;;;;;;;;;;;4994934;28;8669;-85
2022/09/06 11:50:20;;;;;;;;;;;;;;;;;;5011168;28;7124;-84
2022/09/06 11:52:58;;;;;;;;;;;;;;;;;;4995023;28;8549;-84
2022/09/06 11:55:31;;;;;;;;;;;;;;;;;;5011654;28;8526;-82
2022/09/06 11:57:59;;;;;;;;;;;;;;;;;;5011002;28;8595;-83
2022/09/06 12:00:25;;;;;;;;;;;;;;;;;;5011470;28;8888;-83
2022/09/06 12:02:52;;;;;;;;;;;;;;;;;;4994988;28;7243;-83
2022/09/06 12:05:21;;;;;;;;;;;;;;;;;;5011321;28;7253;-83
2022/09/06 12:08:05;;;;;;;;;;;;;;;;;;5011301;28;8495;-83
2022/09/06 12:10:40;;;;;;;;;;;;;;;;;;4995026;28;8472;-83
2022/09/06 12:13:25;;;;;;;;;;;;;;;;;;4994727;28;8587;-83
2022/09/06 12:15:52;;;;;;;;;;;;;;;;;;4994949;28;8861;-82
2022/09/06 12:18:36;;;;;;;;;;;;;;;;;;5011223;28;8679;-82
2022/09/06 12:21:03;;;;;;;;;;;;;;;;;;4994676;28;8554;-82
2022/09/06 12:23:49;;;;;;;;;;;;;;;;;;5010914;28;7117;-83
2022/09/06 12:26:34;;;;;;;;;;;;;;;;;;4994030;28;6912;-83
2022/09/06 12:29:00;;;;;;;;;;;;;;;;;;5011024;28;8550;-82
2022/09/06 12:31:30;;;;;;;;;;;;;;;;;;5010791;28;8528;-83
2022/09/06 12:33:57;;;;;;;;;;;;;;;;;;5010783;28;8540;-82
2022/09/06 12:36:29;;;;;;;;;;;;;;;;;;5010681;28;8628;-82
2022/09/06 12:39:01;;;;;;;;;;;;;;;;;;5010827;28;8705;-83
2022/09/06 12:41:35;;;;;;;;;;;;;;;;;;4994675;28;8505;-83
2022/09/06 12:44:04;;;;;;;;;;;;;;;;;;5010821;28;8483;-83
2022/09/06 12:46:31;;;;;;;;;;;;;;;;;;5010752;28;8544;-83
2022/09/06 12:49:00;;;;;;;;;;;;;;;;;;5010473;28;7338;-83
2022/09/06 12:51:25;;;;;;;;;;;;;;;;;;4994244;28;7533;-83
2022/09/06 12:53:52;;;;;;;;;;;;;;;;;;5009468;28;8800;-82
2022/09/06 12:56:20;;;;;;;;;;;;;;;;;;5011080;28;9409;-84
2022/09/06 12:58:45;;;;;;;;;;;;;;;;;;5009683;28;8814;-83
2022/09/06 13:01:13;;;;;;;;;;;;;;;;;;5009839;28;8498;-84
2022/09/06 13:03:54;;;;;;;;;;;;;;;;;;4993637;28;8705;-84
2022/09/06 13:06:24;;;;;;;;;;;;;;;;;;5010220;28;8484;-84
2022/09/06 13:08:52;;;;;;;;;;;;;;;;;;5009799;28;8519;-82
2022/09/06 13:11:24;;;;;;;;;;;;;;;;;;5010101;28;8537;-84
2022/09/06 13:13:52;;;;;;;;;;;;;;;;;;5010103;28;8744;-84
2022/09/06 13:16:21;;;;;;;;;;;;;;;;;;5010356;28;8495;-82
2022/09/06 13:18:46;;;;;;;;;;;;;;;;;;5010502;28;8567;-85
2022/09/06 13:21:23;;;;;;;;;;;;;;;;;;5010365;28;8728;-83
2022/09/06 13:23:51;;;;;;;;;;;;;;;;;;5010032;28;8543;-84
2022/09/06 13:26:39;;;;;;;;;;;;;;;;;;5011614;28;7248;-85
2022/09/06 13:29:11;;;;;;;;;;;;;;;;;;5010111;28;8645;-82
2022/09/06 13:31:37;;;;;;;;;;;;;;;;;;5010491;28;7140;-81
2022/09/06 13:34:02;;;;;;;;;;;;;;;;;;5009934;28;8828;-82
2022/09/06 13:36:32;;;;;;;;;;;;;;;;;;5010083;28;8555;-82
2022/09/06 13:39:00;;;;;;;;;;;;;;;;;;5010048;28;8534;-83
2022/09/06 13:41:29;;;;;;;;;;;;;;;;;;5009739;28;8525;-83
2022/09/06 13:44:23;;;;;;;;;;;;;;;;;;4993318;28;8508;-80
2022/09/06 13:46:54;;;;;;;;;;;;;;;;;;4980825;28;7316;-81
2022/09/06 13:49:22;;;;;;;;;;;;;;;;;;5010430;28;7257;-81
2022/09/06 13:51:48;;;;;;;;;;;;;;;;;;5009878;28;7260;-81
2022/09/06 13:54:14;;;;;;;;;;;;;;;;;;5010906;28;9065;-82
2022/09/06 13:56:43;;;;;;;;;;;;;;;;;;5010154;28;8822;-80
2022/09/06 13:59:09;;;;;;;;;;;;;;;;;;5012042;28;6881;-80
2022/09/06 14:01:35;;;;;;;;;;;;;;;;;;5009980;28;8528;-81
2022/09/06 14:04:02;;;;;;;;;;;;;;;;;;5010245;28;7111;-82
2022/09/06 14:06:27;;;;;;;;;;;;;;;;;;5013932;28;8551;-82
2022/09/06 14:08:53;;;;;;;;;;;;;;;;;;5013842;28;8555;-81
2022/09/06 14:11:18;;;;;;;;;;;;;;;;;;5013622;28;8756;-81
2022/09/06 14:13:44;;;;;;;;;;;;;;;;;;5013974;28;8448;-81
2022/09/06 14:16:10;;;;;;;;;;;;;;;;;;5013744;28;7255;-81
2022/09/06 14:18:35;;;;;;;;;;;;;;;;;;5012878;28;7414;-81
2022/09/06 14:21:01;;;;;;;;;;;;;;;;;;5015789;28;8931;-80
2022/09/06 14:23:27;;;;;;;;;;;;;;;;;;5013190;28;8878;-76
2022/09/06 14:26:01;;;;;;;;;;;;;;;;;;5012695;28;8532;-78
2022/09/06 14:28:27;;;;;;;;;;;;;;;;;;5013082;28;8519;-79
2022/09/06 14:30:53;;;;;;;;;;;;;;;;;;5012704;28;8732;-80
2022/09/06 14:33:20;;;;;;;;;;;;;;;;;;5013840;28;8444;-79
2022/09/06 14:35:45;;;;;;;;;;;;;;;;;;5012871;28;7117;-78
2022/09/06 14:38:11;;;;;;;;;;;;;;;;;;5013154;28;8530;-78
2022/09/06 14:40:38;;;;;;;;;;;;;;;;;;5012560;28;8474;-79
2022/09/06 14:43:04;;;;;;;;;;;;;;;;;;5013031;28;8842;-77
2022/09/06 14:45:33;;;;;;;;;;;;;;;;;;5012323;28;7259;-79
2022/09/06 14:47:58;;;;;;;;;;;;;;;;;;5012492;28;8518;-78
2022/09/06 14:50:24;;;;;;;;;;;;;;;;;;5012564;28;8512;-82
2022/09/06 14:52:49;;;;;;;;;;;;;;;;;;5012592;28;8509;-81
2022/09/06 14:55:15;;;;;;;;;;;;;;;;;;5012177;28;7422;-78
2022/09/06 14:57:40;;;;;;;;;;;;;;;;;;5012511;28;8664;-78
2022/09/06 15:00:10;;;;;;;;;;;;;;;;;;5012645;28;8995;-80
2022/09/06 15:02:36;;;;;;;;;;;;;;;;;;5012426;28;8560;-81
2022/09/06 15:05:02;;;;;;;;;;;;;;;;;;5012195;28;8871;-86
2022/09/06 15:07:30;;;;;;;;;;;;;;;;;;5011900;28;8913;-86
2022/09/06 15:09:55;;;;;;;;;;;;;;;;;;5011932;28;8933;-84
2022/09/06 15:12:21;;;;;;;;;;;;;;;;;;5011934;28;7218;-86
2022/09/06 15:14:47;;;;;;;;;;;;;;;;;;5011826;28;8514;-83
2022/09/06 15:17:12;;;;;;;;;;;;;;;;;;5011810;28;8535;-84
2022/09/06 15:19:38;;;;;;;;;;;;;;;;;;4995516;28;8843;-84
2022/09/06 15:22:04;;;;;;;;;;;;;;;;;;5011827;28;8512;-83
2022/09/06 15:24:30;;;;;;;;;;;;;;;;;;5011715;28;8495;-83
2022/09/06 15:26:56;;;;;;;;;;;;;;;;;;5011720;28;7253;-84
2022/09/06 15:29:22;;;;;;;;;;;;;;;;;;5011812;28;8873;-83
2022/09/06 15:31:51;;;;;;;;;;;;;;;;;;5011904;28;8974;-82
2022/09/06 15:34:21;;;;;;;;;;;;;;;;;;5010957;28;7149;-84
2022/09/06 15:36:47;;;;;;;;;;;;;;;;;;5010959;28;8749;-84
2022/09/06 15:39:13;;;;;;;;;;;;;;;;;;5011843;28;7131;-83
2022/09/06 15:41:39;;;;;;;;;;;;;;;;;;5011821;28;8465;-84
2022/09/06 15:44:08;;;;;;;;;;;;;;;;;;5011627;28;8957;-84
2022/09/06 15:46:33;;;;;;;;;;;;;;;;;;5010776;28;8532;-82
2022/09/06 15:49:01;;;;;;;;;;;;;;;;;;4994739;28;8700;-83
2022/09/06 15:51:27;;;;;;;;;;;;;;;;;;5010863;28;8513;-83
2022/09/06 15:53:53;;;;;;;;;;;;;;;;;;5011678;28;8857;-84
2022/09/06 15:56:18;;;;;;;;;;;;;;;;;;5011600;28;8589;-84
2022/09/06 15:58:45;;;;;;;;;;;;;;;;;;5011293;28;7160;-83
2022/09/06 16:01:12;;;;;;;;;;;;;;;;;;5010159;28;8565;-82
2022/09/06 16:03:43;;;;;;;;;;;;;;;;;;5011519;28;8545;-82
2022/09/06 16:06:20;;;;;;;;;;;;;;;;;;5011183;28;7262;-80
2022/09/06 16:08:49;;;;;;;;;;;;;;;;;;5011106;28;9261;-82
2022/09/06 16:11:16;;;;;;;;;;;;;;;;;;5011044;28;8844;-83
2022/09/06 16:13:43;;;;;;;;;;;;;;;;;;5011255;28;8691;-82
2022/09/06 16:16:11;;;;;;;;;;;;;;;;;;5011307;28;8502;-83
2022/09/06 16:18:39;;;;;;;;;;;;;;;;;;5010674;28;8678;-83
2022/09/06 16:21:04;;;;;;;;;;;;;;;;;;5010780;28;8711;-83
2022/09/06 16:23:30;;;;;;;;;;;;;;;;;;4994385;28;7109;-85
2022/09/06 16:25:56;;;;;;;;;;;;;;;;;;5010935;28;8740;-84
2022/09/06 16:28:21;;;;;;;;;;;;;;;;;;5010257;28;8476;-85
2022/09/06 16:30:46;;;;;;;;;;;;;;;;;;5010828;28;8680;-85
2022/09/06 16:33:12;;;;;;;;;;;;;;;;;;5010887;28;7064;-84
2022/09/06 16:35:42;;;;;;;;;;;;;;;;;;5010938;28;8474;-85
2022/09/06 16:38:08;;;;;;;;;;;;;;;;;;5010243;28;8853;-83
2022/09/06 16:40:42;;;;;;;;;;;;;;;;;;5010629;28;8709;-83
2022/09/06 16:43:08;;;;;;;;;;;;;;;;;;5010577;28;8527;-82
2022/09/06 16:45:33;;;;;;;;;;;;;;;;;;5010915;28;8553;-83
2022/09/06 16:47:59;;;;;;;;;;;;;;;;;;5010896;28;8560;-83
2022/09/06 16:50:25;;;;;;;;;;;;;;;;;;5010364;28;8839;-84
2022/09/06 16:52:51;;;;;;;;;;;;;;;;;;5010636;28;8759;-84
2022/09/06 16:55:17;;;;;;;;;;;;;;;;;;5010437;28;8515;-82
2022/09/06 16:57:42;;;;;;;;;;;;;;;;;;5010694;28;8468;-82
2022/09/06 17:00:09;;;;;;;;;;;;;;;;;;5009718;28;8548;-82
2022/09/06 17:02:35;;;;;;;;;;;;;;;;;;5010209;28;9374;-84
2022/09/06 17:05:00;;;;;;;;;;;;;;;;;;5018336;28;8752;-84
2022/09/06 17:07:25;;;;;;;;;;;;;;;;;;5030704;28;7199;-84
2022/09/06 17:09:51;;;;;;;;;;;;;;;;;;5030159;28;8935;-84
2022/09/06 17:12:16;;;;;;;;;;;;;;;;;;5029938;28;8665;-82
2022/09/06 17:14:42;;;;;;;;;;;;;;;;;;5029680;28;8487;-83